sensor_id;sensor_type;location;lat;lon;timestamp;P1;durP1;ratioP1;P2;durP2;ratioP2
75386;SDS011;63966;47.914;22.266;2022-10-22T00:02:08;10.27;;;5.20;;
75386;SDS011;63966;47.914;22.266;2022-10-22T00:05:11;12.75;;;5.22;;
75386;SDS011;63966;47.914;22.266;2022-10-22T00:08:14;10.65;;;5.00;;
75386;SDS011;63966;47.914;22.266;2022-10-22T00:11:18;9.53;;;4.77;;
75386;SDS011;63966;47.914;22.266;2022-10-22T00:14:22;11.23;;;5.10;;
75386;SDS011;63966;47.914;22.266;2022-10-22T00:17:25;12.27;;;5.00;;
75386;SDS011;63966;47.914;22.266;2022-10-22T00:20:29;14.40;;;4.97;;
75386;SDS011;63966;47.914;22.266;2022-10-22T00:23:32;11.18;;;4.90;;
75386;SDS011;63966;47.914;22.266;2022-10-22T00:26:36;12.93;;;4.70;;
75386;SDS011;63966;47.914;22.266;2022-10-22T00:29:40;11.47;;;4.73;;
75386;SDS011;63966;47.914;22.266;2022-10-22T00:32:44;9.68;;;4.45;;
75386;SDS011;63966;47.914;22.266;2022-10-22T00:35:48;10.65;;;4.88;;
75386;SDS011;63966;47.914;22.266;2022-10-22T00:38:51;9.80;;;4.70;;
75386;SDS011;63966;47.914;22.266;2022-10-22T00:41:55;11.63;;;4.90;;
75386;SDS011;63966;47.914;22.266;2022-10-22T00:48:16;9.85;;;4.28;;
75386;SDS011;63966;47.914;22.266;2022-10-22T00:51:27;11.18;;;4.30;;
75386;SDS011;63966;47.914;22.266;2022-10-22T00:54:34;11.05;;;4.50;;
75386;SDS011;63966;47.914;22.266;2022-10-22T00:57:38;9.40;;;4.73;;
75386;SDS011;63966;47.914;22.266;2022-10-22T01:00:42;9.60;;;4.00;;
75386;SDS011;63966;47.914;22.266;2022-10-22T01:03:46;10.48;;;4.38;;
75386;SDS011;63966;47.914;22.266;2022-10-22T01:06:50;10.40;;;4.45;;
75386;SDS011;63966;47.914;22.266;2022-10-22T01:20:13;8.43;;;3.85;;
75386;SDS011;63966;47.914;22.266;2022-10-22T01:26:49;9.90;;;3.90;;
75386;SDS011;63966;47.914;22.266;2022-10-22T01:30:23;9.00;;;4.07;;
75386;SDS011;63966;47.914;22.266;2022-10-22T01:33:27;8.03;;;3.60;;
75386;SDS011;63966;47.914;22.266;2022-10-22T01:36:32;8.23;;;4.00;;
75386;SDS011;63966;47.914;22.266;2022-10-22T01:39:36;10.75;;;4.00;;
75386;SDS011;63966;47.914;22.266;2022-10-22T01:42:41;8.43;;;3.70;;
75386;SDS011;63966;47.914;22.266;2022-10-22T01:45:58;9.20;;;4.00;;
75386;SDS011;63966;47.914;22.266;2022-10-22T01:52:14;12.00;;;4.47;;
75386;SDS011;63966;47.914;22.266;2022-10-22T02:08:42;10.45;;;3.90;;
75386;SDS011;63966;47.914;22.266;2022-10-22T02:11:46;10.52;;;4.47;;
75386;SDS011;63966;47.914;22.266;2022-10-22T02:14:50;9.20;;;4.32;;
75386;SDS011;63966;47.914;22.266;2022-10-22T02:17:57;8.73;;;4.20;;
75386;SDS011;63966;47.914;22.266;2022-10-22T02:21:02;10.20;;;4.00;;
75386;SDS011;63966;47.914;22.266;2022-10-22T02:24:07;7.90;;;4.00;;
75386;SDS011;63966;47.914;22.266;2022-10-22T02:30:32;10.55;;;4.30;;
75386;SDS011;63966;47.914;22.266;2022-10-22T02:33:37;8.90;;;3.73;;
75386;SDS011;63966;47.914;22.266;2022-10-22T02:36:48;10.83;;;4.47;;
75386;SDS011;63966;47.914;22.266;2022-10-22T02:39:52;10.57;;;4.20;;
75386;SDS011;63966;47.914;22.266;2022-10-22T02:42:57;11.18;;;4.40;;
75386;SDS011;63966;47.914;22.266;2022-10-22T02:46:01;8.02;;;4.00;;
75386;SDS011;63966;47.914;22.266;2022-10-22T02:49:04;9.83;;;4.23;;
75386;SDS011;63966;47.914;22.266;2022-10-22T02:52:08;8.00;;;3.77;;
75386;SDS011;63966;47.914;22.266;2022-10-22T02:55:11;9.40;;;4.05;;
75386;SDS011;63966;47.914;22.266;2022-10-22T02:58:15;8.70;;;3.72;;
75386;SDS011;63966;47.914;22.266;2022-10-22T03:01:18;8.55;;;4.00;;
75386;SDS011;63966;47.914;22.266;2022-10-22T03:04:22;11.43;;;4.20;;
75386;SDS011;63966;47.914;22.266;2022-10-22T03:07:25;9.53;;;4.20;;
75386;SDS011;63966;47.914;22.266;2022-10-22T03:10:28;7.82;;;3.88;;
75386;SDS011;63966;47.914;22.266;2022-10-22T03:13:32;7.78;;;3.72;;
75386;SDS011;63966;47.914;22.266;2022-10-22T03:16:35;9.52;;;4.43;;
75386;SDS011;63966;47.914;22.266;2022-10-22T03:19:38;9.17;;;4.27;;
75386;SDS011;63966;47.914;22.266;2022-10-22T03:22:43;8.20;;;3.80;;
75386;SDS011;63966;47.914;22.266;2022-10-22T03:25:47;8.23;;;3.72;;
75386;SDS011;63966;47.914;22.266;2022-10-22T03:28:52;9.35;;;4.13;;
75386;SDS011;63966;47.914;22.266;2022-10-22T03:31:55;10.23;;;4.35;;
75386;SDS011;63966;47.914;22.266;2022-10-22T03:34:59;10.53;;;4.50;;
75386;SDS011;63966;47.914;22.266;2022-10-22T03:38:02;11.50;;;4.27;;
75386;SDS011;63966;47.914;22.266;2022-10-22T03:41:06;9.57;;;4.43;;
75386;SDS011;63966;47.914;22.266;2022-10-22T03:44:09;10.65;;;4.03;;
75386;SDS011;63966;47.914;22.266;2022-10-22T03:47:13;11.15;;;4.15;;
75386;SDS011;63966;47.914;22.266;2022-10-22T03:50:17;8.13;;;4.03;;
75386;SDS011;63966;47.914;22.266;2022-10-22T03:53:20;9.03;;;4.13;;
75386;SDS011;63966;47.914;22.266;2022-10-22T03:56:23;8.98;;;4.20;;
75386;SDS011;63966;47.914;22.266;2022-10-22T03:59:27;7.82;;;3.50;;
75386;SDS011;63966;47.914;22.266;2022-10-22T04:02:30;11.18;;;4.47;;
75386;SDS011;63966;47.914;22.266;2022-10-22T04:05:34;10.37;;;4.13;;
75386;SDS011;63966;47.914;22.266;2022-10-22T04:08:38;9.97;;;4.80;;
75386;SDS011;63966;47.914;22.266;2022-10-22T04:11:43;8.70;;;4.20;;
75386;SDS011;63966;47.914;22.266;2022-10-22T04:14:46;10.50;;;4.28;;
75386;SDS011;63966;47.914;22.266;2022-10-22T04:17:50;8.65;;;3.97;;
75386;SDS011;63966;47.914;22.266;2022-10-22T04:20:53;8.73;;;4.13;;
75386;SDS011;63966;47.914;22.266;2022-10-22T04:23:57;9.87;;;4.23;;
75386;SDS011;63966;47.914;22.266;2022-10-22T04:27:00;10.95;;;4.47;;
75386;SDS011;63966;47.914;22.266;2022-10-22T04:30:04;10.98;;;4.38;;
75386;SDS011;63966;47.914;22.266;2022-10-22T04:33:07;9.50;;;4.78;;
75386;SDS011;63966;47.914;22.266;2022-10-22T04:36:12;7.73;;;4.23;;
75386;SDS011;63966;47.914;22.266;2022-10-22T04:39:19;11.73;;;4.30;;
75386;SDS011;63966;47.914;22.266;2022-10-22T04:42:23;10.30;;;4.50;;
75386;SDS011;63966;47.914;22.266;2022-10-22T04:45:26;9.30;;;4.57;;
75386;SDS011;63966;47.914;22.266;2022-10-22T04:48:29;11.48;;;4.63;;
75386;SDS011;63966;47.914;22.266;2022-10-22T04:51:33;10.30;;;4.20;;
75386;SDS011;63966;47.914;22.266;2022-10-22T04:54:36;9.00;;;4.50;;
75386;SDS011;63966;47.914;22.266;2022-10-22T04:57:39;10.73;;;4.32;;
75386;SDS011;63966;47.914;22.266;2022-10-22T05:00:43;8.82;;;4.43;;
75386;SDS011;63966;47.914;22.266;2022-10-22T05:03:47;9.38;;;4.63;;
75386;SDS011;63966;47.914;22.266;2022-10-22T05:06:52;11.77;;;4.73;;
75386;SDS011;63966;47.914;22.266;2022-10-22T05:09:55;11.00;;;5.00;;
75386;SDS011;63966;47.914;22.266;2022-10-22T05:12:59;10.52;;;5.15;;
75386;SDS011;63966;47.914;22.266;2022-10-22T05:16:02;9.80;;;4.78;;
75386;SDS011;63966;47.914;22.266;2022-10-22T05:19:06;13.88;;;5.10;;
75386;SDS011;63966;47.914;22.266;2022-10-22T05:22:10;11.10;;;4.77;;
75386;SDS011;63966;47.914;22.266;2022-10-22T05:25:13;14.03;;;5.00;;
75386;SDS011;63966;47.914;22.266;2022-10-22T05:28:16;12.68;;;4.72;;
75386;SDS011;63966;47.914;22.266;2022-10-22T05:31:20;14.02;;;5.03;;
75386;SDS011;63966;47.914;22.266;2022-10-22T05:34:23;11.00;;;5.13;;
75386;SDS011;63966;47.914;22.266;2022-10-22T05:37:27;13.07;;;5.40;;
75386;SDS011;63966;47.914;22.266;2022-10-22T05:40:30;12.03;;;5.07;;
75386;SDS011;63966;47.914;22.266;2022-10-22T05:43:34;11.40;;;4.68;;
75386;SDS011;63966;47.914;22.266;2022-10-22T05:46:38;10.45;;;4.78;;
75386;SDS011;63966;47.914;22.266;2022-10-22T05:49:41;11.35;;;5.20;;
75386;SDS011;63966;47.914;22.266;2022-10-22T05:52:45;10.23;;;4.70;;
75386;SDS011;63966;47.914;22.266;2022-10-22T05:55:48;10.77;;;4.93;;
75386;SDS011;63966;47.914;22.266;2022-10-22T05:58:51;9.88;;;4.63;;
75386;SDS011;63966;47.914;22.266;2022-10-22T06:01:55;9.38;;;4.55;;
75386;SDS011;63966;47.914;22.266;2022-10-22T06:04:58;11.23;;;5.10;;
75386;SDS011;63966;47.914;22.266;2022-10-22T06:08:02;10.63;;;4.50;;
75386;SDS011;63966;47.914;22.266;2022-10-22T06:11:06;10.17;;;4.67;;
75386;SDS011;63966;47.914;22.266;2022-10-22T06:14:09;10.45;;;5.20;;
75386;SDS011;63966;47.914;22.266;2022-10-22T06:17:13;17.13;;;6.93;;
75386;SDS011;63966;47.914;22.266;2022-10-22T06:20:16;22.08;;;8.07;;
75386;SDS011;63966;47.914;22.266;2022-10-22T06:23:19;24.13;;;9.77;;
75386;SDS011;63966;47.914;22.266;2022-10-22T06:26:23;19.60;;;8.63;;
75386;SDS011;63966;47.914;22.266;2022-10-22T06:29:26;15.60;;;6.05;;
75386;SDS011;63966;47.914;22.266;2022-10-22T06:32:30;11.43;;;6.10;;
75386;SDS011;63966;47.914;22.266;2022-10-22T06:35:33;12.10;;;5.97;;
75386;SDS011;63966;47.914;22.266;2022-10-22T06:38:37;10.47;;;5.33;;
75386;SDS011;63966;47.914;22.266;2022-10-22T06:41:41;11.70;;;5.90;;
75386;SDS011;63966;47.914;22.266;2022-10-22T06:44:44;13.93;;;6.38;;
75386;SDS011;63966;47.914;22.266;2022-10-22T06:47:47;11.43;;;5.95;;
75386;SDS011;63966;47.914;22.266;2022-10-22T06:50:51;11.48;;;5.95;;
75386;SDS011;63966;47.914;22.266;2022-10-22T06:53:55;14.27;;;6.30;;
75386;SDS011;63966;47.914;22.266;2022-10-22T06:56:59;10.97;;;5.90;;
75386;SDS011;63966;47.914;22.266;2022-10-22T07:00:04;13.43;;;6.28;;
75386;SDS011;63966;47.914;22.266;2022-10-22T07:03:10;13.68;;;6.05;;
75386;SDS011;63966;47.914;22.266;2022-10-22T07:06:14;15.23;;;6.93;;
75386;SDS011;63966;47.914;22.266;2022-10-22T07:09:18;14.40;;;7.00;;
75386;SDS011;63966;47.914;22.266;2022-10-22T07:12:21;11.47;;;6.27;;
75386;SDS011;63966;47.914;22.266;2022-10-22T07:15:25;12.88;;;5.60;;
75386;SDS011;63966;47.914;22.266;2022-10-22T07:18:29;10.38;;;5.45;;
75386;SDS011;63966;47.914;22.266;2022-10-22T07:21:32;10.82;;;5.50;;
75386;SDS011;63966;47.914;22.266;2022-10-22T07:24:36;12.77;;;5.67;;
75386;SDS011;63966;47.914;22.266;2022-10-22T07:27:39;10.70;;;5.37;;
75386;SDS011;63966;47.914;22.266;2022-10-22T07:30:43;9.00;;;5.00;;
75386;SDS011;63966;47.914;22.266;2022-10-22T07:33:47;12.43;;;5.60;;
75386;SDS011;63966;47.914;22.266;2022-10-22T07:36:50;12.77;;;5.75;;
75386;SDS011;63966;47.914;22.266;2022-10-22T07:39:54;11.87;;;5.57;;
75386;SDS011;63966;47.914;22.266;2022-10-22T07:43:04;10.73;;;5.83;;
75386;SDS011;63966;47.914;22.266;2022-10-22T07:46:07;9.23;;;4.85;;
75386;SDS011;63966;47.914;22.266;2022-10-22T07:49:11;12.95;;;6.22;;
75386;SDS011;63966;47.914;22.266;2022-10-22T07:52:14;10.23;;;5.70;;
75386;SDS011;63966;47.914;22.266;2022-10-22T07:55:18;11.70;;;5.63;;
75386;SDS011;63966;47.914;22.266;2022-10-22T07:58:21;11.90;;;6.23;;
75386;SDS011;63966;47.914;22.266;2022-10-22T08:01:25;12.93;;;6.32;;
75386;SDS011;63966;47.914;22.266;2022-10-22T08:04:28;12.65;;;6.85;;
75386;SDS011;63966;47.914;22.266;2022-10-22T08:07:31;12.25;;;6.82;;
75386;SDS011;63966;47.914;22.266;2022-10-22T08:10:35;15.37;;;7.83;;
75386;SDS011;63966;47.914;22.266;2022-10-22T08:13:39;14.47;;;6.87;;
75386;SDS011;63966;47.914;22.266;2022-10-22T08:16:46;17.30;;;7.15;;
75386;SDS011;63966;47.914;22.266;2022-10-22T08:19:49;12.75;;;6.80;;
75386;SDS011;63966;47.914;22.266;2022-10-22T08:22:53;12.18;;;6.93;;
75386;SDS011;63966;47.914;22.266;2022-10-22T08:25:56;11.90;;;7.13;;
75386;SDS011;63966;47.914;22.266;2022-10-22T08:29:00;12.87;;;6.63;;
75386;SDS011;63966;47.914;22.266;2022-10-22T08:32:04;14.90;;;7.75;;
75386;SDS011;63966;47.914;22.266;2022-10-22T08:35:08;15.02;;;8.70;;
75386;SDS011;63966;47.914;22.266;2022-10-22T08:38:16;13.43;;;7.22;;
75386;SDS011;63966;47.914;22.266;2022-10-22T08:41:21;13.30;;;7.50;;
75386;SDS011;63966;47.914;22.266;2022-10-22T08:51:17;12.25;;;7.18;;
75386;SDS011;63966;47.914;22.266;2022-10-22T08:54:27;12.55;;;7.28;;
75386;SDS011;63966;47.914;22.266;2022-10-22T08:57:56;14.20;;;7.17;;
75386;SDS011;63966;47.914;22.266;2022-10-22T09:01:14;14.13;;;7.27;;
75386;SDS011;63966;47.914;22.266;2022-10-22T09:07:42;16.10;;;7.82;;
75386;SDS011;63966;47.914;22.266;2022-10-22T09:10:53;12.93;;;7.57;;
75386;SDS011;63966;47.914;22.266;2022-10-22T09:14:20;14.47;;;7.57;;
75386;SDS011;63966;47.914;22.266;2022-10-22T09:17:28;18.93;;;7.73;;
75386;SDS011;63966;47.914;22.266;2022-10-22T09:20:44;20.63;;;8.88;;
75386;SDS011;63966;47.914;22.266;2022-10-22T09:27:24;16.42;;;8.63;;
75386;SDS011;63966;47.914;22.266;2022-10-22T09:30:33;15.03;;;8.37;;
75386;SDS011;63966;47.914;22.266;2022-10-22T09:33:40;15.07;;;7.80;;
75386;SDS011;63966;47.914;22.266;2022-10-22T09:36:44;14.98;;;8.68;;
75386;SDS011;63966;47.914;22.266;2022-10-22T09:39:50;13.65;;;8.10;;
75386;SDS011;63966;47.914;22.266;2022-10-22T09:42:54;13.20;;;8.13;;
75386;SDS011;63966;47.914;22.266;2022-10-22T09:45:59;20.47;;;8.20;;
75386;SDS011;63966;47.914;22.266;2022-10-22T09:49:05;15.43;;;8.13;;
75386;SDS011;63966;47.914;22.266;2022-10-22T09:52:23;14.48;;;8.25;;
75386;SDS011;63966;47.914;22.266;2022-10-22T09:55:30;15.95;;;8.85;;
75386;SDS011;63966;47.914;22.266;2022-10-22T09:58:40;14.77;;;8.35;;
75386;SDS011;63966;47.914;22.266;2022-10-22T10:01:45;15.60;;;8.63;;
75386;SDS011;63966;47.914;22.266;2022-10-22T10:04:55;13.63;;;8.23;;
75386;SDS011;63966;47.914;22.266;2022-10-22T10:08:06;19.10;;;9.45;;
75386;SDS011;63966;47.914;22.266;2022-10-22T10:21:25;20.00;;;8.57;;
75386;SDS011;63966;47.914;22.266;2022-10-22T10:24:50;15.57;;;8.52;;
75386;SDS011;63966;47.914;22.266;2022-10-22T10:28:00;15.07;;;9.25;;
75386;SDS011;63966;47.914;22.266;2022-10-22T10:31:31;14.60;;;8.30;;
75386;SDS011;63966;47.914;22.266;2022-10-22T10:34:51;18.13;;;11.00;;
75386;SDS011;63966;47.914;22.266;2022-10-22T10:38:20;17.07;;;9.73;;
75386;SDS011;63966;47.914;22.266;2022-10-22T10:42:07;16.80;;;9.15;;
75386;SDS011;63966;47.914;22.266;2022-10-22T10:45:19;19.67;;;11.25;;
75386;SDS011;63966;47.914;22.266;2022-10-22T10:52:00;15.00;;;8.97;;
75386;SDS011;63966;47.914;22.266;2022-10-22T10:55:33;17.23;;;9.00;;
75386;SDS011;63966;47.914;22.266;2022-10-22T10:59:05;15.30;;;8.50;;
75386;SDS011;63966;47.914;22.266;2022-10-22T11:05:53;14.48;;;8.77;;
75386;SDS011;63966;47.914;22.266;2022-10-22T11:12:33;18.73;;;9.50;;
75386;SDS011;63966;47.914;22.266;2022-10-22T11:15:41;16.02;;;9.55;;
75386;SDS011;63966;47.914;22.266;2022-10-22T11:22:30;17.85;;;10.57;;
75386;SDS011;63966;47.914;22.266;2022-10-22T11:26:01;18.40;;;9.87;;
75386;SDS011;63966;47.914;22.266;2022-10-22T11:29:16;13.37;;;8.67;;
75386;SDS011;63966;47.914;22.266;2022-10-22T11:32:24;16.13;;;9.10;;
75386;SDS011;63966;47.914;22.266;2022-10-22T11:35:33;16.90;;;9.38;;
75386;SDS011;63966;47.914;22.266;2022-10-22T11:38:38;16.70;;;8.93;;
75386;SDS011;63966;47.914;22.266;2022-10-22T11:41:43;17.83;;;9.50;;
75386;SDS011;63966;47.914;22.266;2022-10-22T11:44:58;18.90;;;10.60;;
75386;SDS011;63966;47.914;22.266;2022-10-22T11:51:34;18.15;;;8.68;;
75386;SDS011;63966;47.914;22.266;2022-10-22T11:54:40;14.68;;;8.18;;
75386;SDS011;63966;47.914;22.266;2022-10-22T11:57:46;15.37;;;8.43;;
75386;SDS011;63966;47.914;22.266;2022-10-22T12:00:49;15.20;;;8.43;;
75386;SDS011;63966;47.914;22.266;2022-10-22T12:07:00;17.45;;;10.05;;
75386;SDS011;63966;47.914;22.266;2022-10-22T12:10:04;17.83;;;9.35;;
75386;SDS011;63966;47.914;22.266;2022-10-22T12:13:23;17.10;;;8.73;;
75386;SDS011;63966;47.914;22.266;2022-10-22T12:20:03;20.98;;;9.40;;
75386;SDS011;63966;47.914;22.266;2022-10-22T12:23:13;19.40;;;9.27;;
75386;SDS011;63966;47.914;22.266;2022-10-22T12:26:24;19.65;;;9.43;;
75386;SDS011;63966;47.914;22.266;2022-10-22T12:29:30;19.73;;;10.13;;
75386;SDS011;63966;47.914;22.266;2022-10-22T12:32:35;15.83;;;9.13;;
75386;SDS011;63966;47.914;22.266;2022-10-22T12:35:43;17.00;;;9.77;;
75386;SDS011;63966;47.914;22.266;2022-10-22T12:38:47;25.73;;;14.70;;
75386;SDS011;63966;47.914;22.266;2022-10-22T12:41:51;28.73;;;16.35;;
75386;SDS011;63966;47.914;22.266;2022-10-22T12:44:55;24.47;;;14.63;;
75386;SDS011;63966;47.914;22.266;2022-10-22T12:48:03;26.53;;;13.67;;
75386;SDS011;63966;47.914;22.266;2022-10-22T12:51:17;24.50;;;13.27;;
75386;SDS011;63966;47.914;22.266;2022-10-22T12:54:24;26.70;;;12.95;;
75386;SDS011;63966;47.914;22.266;2022-10-22T12:57:29;25.90;;;12.93;;
75386;SDS011;63966;47.914;22.266;2022-10-22T13:00:34;27.27;;;13.13;;
75386;SDS011;63966;47.914;22.266;2022-10-22T13:04:29;55.50;;;19.43;;
75386;SDS011;63966;47.914;22.266;2022-10-22T13:07:17;29.00;;;11.77;;
75386;SDS011;63966;47.914;22.266;2022-10-22T13:10:30;19.75;;;10.43;;
75386;SDS011;63966;47.914;22.266;2022-10-22T13:16:50;16.37;;;8.00;;
75386;SDS011;63966;47.914;22.266;2022-10-22T13:20:19;17.30;;;8.33;;
75386;SDS011;63966;47.914;22.266;2022-10-22T13:23:25;16.40;;;7.75;;
75386;SDS011;63966;47.914;22.266;2022-10-22T13:26:33;16.77;;;8.93;;
75386;SDS011;63966;47.914;22.266;2022-10-22T13:29:39;15.65;;;7.53;;
75386;SDS011;63966;47.914;22.266;2022-10-22T13:32:47;14.10;;;7.50;;
75386;SDS011;63966;47.914;22.266;2022-10-22T13:35:56;13.17;;;7.37;;
75386;SDS011;63966;47.914;22.266;2022-10-22T13:38:59;14.80;;;7.53;;
75386;SDS011;63966;47.914;22.266;2022-10-22T13:42:09;14.93;;;7.10;;
75386;SDS011;63966;47.914;22.266;2022-10-22T13:45:14;17.42;;;8.18;;
75386;SDS011;63966;47.914;22.266;2022-10-22T13:48:19;15.63;;;7.30;;
75386;SDS011;63966;47.914;22.266;2022-10-22T13:51:30;12.77;;;7.33;;
75386;SDS011;63966;47.914;22.266;2022-10-22T13:54:38;12.27;;;7.68;;
75386;SDS011;63966;47.914;22.266;2022-10-22T13:57:41;13.60;;;7.57;;
75386;SDS011;63966;47.914;22.266;2022-10-22T14:00:46;19.08;;;8.15;;
75386;SDS011;63966;47.914;22.266;2022-10-22T14:03:56;14.80;;;7.40;;
75386;SDS011;63966;47.914;22.266;2022-10-22T14:07:03;11.93;;;6.67;;
75386;SDS011;63966;47.914;22.266;2022-10-22T14:10:14;14.23;;;6.57;;
75386;SDS011;63966;47.914;22.266;2022-10-22T14:13:23;12.80;;;6.15;;
75386;SDS011;63966;47.914;22.266;2022-10-22T14:16:27;14.77;;;6.53;;
75386;SDS011;63966;47.914;22.266;2022-10-22T14:19:33;13.00;;;6.57;;
75386;SDS011;63966;47.914;22.266;2022-10-22T14:22:36;13.27;;;6.57;;
75386;SDS011;63966;47.914;22.266;2022-10-22T14:25:40;13.70;;;6.85;;
75386;SDS011;63966;47.914;22.266;2022-10-22T14:28:44;18.77;;;8.77;;
75386;SDS011;63966;47.914;22.266;2022-10-22T14:32:15;27.67;;;11.38;;
75386;SDS011;63966;47.914;22.266;2022-10-22T14:35:23;20.27;;;10.20;;
75386;SDS011;63966;47.914;22.266;2022-10-22T14:38:27;23.13;;;10.43;;
75386;SDS011;63966;47.914;22.266;2022-10-22T14:41:31;24.10;;;10.85;;
75386;SDS011;63966;47.914;22.266;2022-10-22T14:44:34;20.83;;;10.65;;
75386;SDS011;63966;47.914;22.266;2022-10-22T14:47:38;24.05;;;12.55;;
75386;SDS011;63966;47.914;22.266;2022-10-22T14:50:42;21.87;;;11.63;;
75386;SDS011;63966;47.914;22.266;2022-10-22T14:53:45;38.10;;;16.50;;
75386;SDS011;63966;47.914;22.266;2022-10-22T14:56:50;40.20;;;18.95;;
75386;SDS011;63966;47.914;22.266;2022-10-22T14:59:53;35.92;;;16.05;;
75386;SDS011;63966;47.914;22.266;2022-10-22T15:02:57;39.30;;;19.23;;
75386;SDS011;63966;47.914;22.266;2022-10-22T15:06:05;56.53;;;26.63;;
75386;SDS011;63966;47.914;22.266;2022-10-22T15:09:09;33.73;;;18.33;;
75386;SDS011;63966;47.914;22.266;2022-10-22T15:12:12;39.85;;;19.40;;
75386;SDS011;63966;47.914;22.266;2022-10-22T15:15:16;60.95;;;30.00;;
75386;SDS011;63966;47.914;22.266;2022-10-22T15:18:24;70.13;;;34.00;;
75386;SDS011;63966;47.914;22.266;2022-10-22T15:21:28;54.60;;;27.60;;
75386;SDS011;63966;47.914;22.266;2022-10-22T15:24:32;37.67;;;19.37;;
75386;SDS011;63966;47.914;22.266;2022-10-22T15:27:35;34.90;;;15.63;;
75386;SDS011;63966;47.914;22.266;2022-10-22T15:30:39;38.38;;;18.65;;
75386;SDS011;63966;47.914;22.266;2022-10-22T15:33:42;42.10;;;16.83;;
75386;SDS011;63966;47.914;22.266;2022-10-22T15:36:46;32.47;;;13.73;;
75386;SDS011;63966;47.914;22.266;2022-10-22T15:39:49;30.10;;;14.27;;
75386;SDS011;63966;47.914;22.266;2022-10-22T15:42:53;34.88;;;15.07;;
75386;SDS011;63966;47.914;22.266;2022-10-22T15:46:12;36.42;;;16.75;;
75386;SDS011;63966;47.914;22.266;2022-10-22T15:49:17;44.45;;;19.33;;
75386;SDS011;63966;47.914;22.266;2022-10-22T15:52:21;50.23;;;23.47;;
75386;SDS011;63966;47.914;22.266;2022-10-22T15:55:25;56.57;;;27.67;;
75386;SDS011;63966;47.914;22.266;2022-10-22T15:58:28;79.57;;;40.28;;
75386;SDS011;63966;47.914;22.266;2022-10-22T16:01:32;62.38;;;34.10;;
75386;SDS011;63966;47.914;22.266;2022-10-22T16:04:36;59.58;;;31.38;;
75386;SDS011;63966;47.914;22.266;2022-10-22T16:07:40;51.93;;;25.60;;
75386;SDS011;63966;47.914;22.266;2022-10-22T16:10:45;61.37;;;30.10;;
75386;SDS011;63966;47.914;22.266;2022-10-22T16:13:53;67.85;;;34.72;;
75386;SDS011;63966;47.914;22.266;2022-10-22T16:16:58;58.72;;;31.80;;
75386;SDS011;63966;47.914;22.266;2022-10-22T16:20:03;45.65;;;24.65;;
75386;SDS011;63966;47.914;22.266;2022-10-22T16:23:07;40.80;;;22.67;;
75386;SDS011;63966;47.914;22.266;2022-10-22T16:26:11;44.90;;;23.80;;
75386;SDS011;63966;47.914;22.266;2022-10-22T16:29:16;51.42;;;27.75;;
75386;SDS011;63966;47.914;22.266;2022-10-22T16:32:19;46.78;;;25.73;;
75386;SDS011;63966;47.914;22.266;2022-10-22T16:35:23;37.65;;;20.02;;
75386;SDS011;63966;47.914;22.266;2022-10-22T16:38:27;36.27;;;20.13;;
75386;SDS011;63966;47.914;22.266;2022-10-22T16:41:30;44.13;;;24.40;;
75386;SDS011;63966;47.914;22.266;2022-10-22T16:44:37;32.15;;;17.60;;
75386;SDS011;63966;47.914;22.266;2022-10-22T16:47:41;29.40;;;18.67;;
75386;SDS011;63966;47.914;22.266;2022-10-22T16:50:47;37.22;;;23.15;;
75386;SDS011;63966;47.914;22.266;2022-10-22T16:53:50;47.97;;;25.37;;
75386;SDS011;63966;47.914;22.266;2022-10-22T16:56:55;43.97;;;27.67;;
75386;SDS011;63966;47.914;22.266;2022-10-22T17:00:07;54.40;;;31.27;;
75386;SDS011;63966;47.914;22.266;2022-10-22T17:03:11;47.13;;;27.65;;
75386;SDS011;63966;47.914;22.266;2022-10-22T17:06:15;40.58;;;25.30;;
75386;SDS011;63966;47.914;22.266;2022-10-22T17:09:19;43.27;;;26.97;;
75386;SDS011;63966;47.914;22.266;2022-10-22T17:12:24;46.17;;;28.67;;
75386;SDS011;63966;47.914;22.266;2022-10-22T17:15:28;47.25;;;29.38;;
75386;SDS011;63966;47.914;22.266;2022-10-22T17:18:33;49.70;;;29.90;;
75386;SDS011;63966;47.914;22.266;2022-10-22T17:21:38;58.42;;;29.55;;
75386;SDS011;63966;47.914;22.266;2022-10-22T17:24:42;51.20;;;30.93;;
75386;SDS011;63966;47.914;22.266;2022-10-22T17:27:45;55.13;;;32.23;;
75386;SDS011;63966;47.914;22.266;2022-10-22T17:30:49;45.83;;;28.05;;
75386;SDS011;63966;47.914;22.266;2022-10-22T17:34:06;43.78;;;26.95;;
75386;SDS011;63966;47.914;22.266;2022-10-22T17:37:11;52.33;;;28.65;;
75386;SDS011;63966;47.914;22.266;2022-10-22T17:40:15;52.27;;;29.10;;
75386;SDS011;63966;47.914;22.266;2022-10-22T17:43:19;55.20;;;30.27;;
75386;SDS011;63966;47.914;22.266;2022-10-22T17:46:23;56.53;;;28.50;;
75386;SDS011;63966;47.914;22.266;2022-10-22T17:49:28;50.67;;;28.05;;
75386;SDS011;63966;47.914;22.266;2022-10-22T17:52:32;51.35;;;29.15;;
75386;SDS011;63966;47.914;22.266;2022-10-22T17:55:36;48.20;;;26.27;;
75386;SDS011;63966;47.914;22.266;2022-10-22T17:58:40;45.40;;;28.03;;
75386;SDS011;63966;47.914;22.266;2022-10-22T18:01:44;44.72;;;26.65;;
75386;SDS011;63966;47.914;22.266;2022-10-22T18:04:49;45.13;;;26.58;;
75386;SDS011;63966;47.914;22.266;2022-10-22T18:07:54;48.33;;;28.75;;
75386;SDS011;63966;47.914;22.266;2022-10-22T18:10:58;48.97;;;29.07;;
75386;SDS011;63966;47.914;22.266;2022-10-22T18:14:06;47.50;;;27.17;;
75386;SDS011;63966;47.914;22.266;2022-10-22T18:17:10;47.97;;;28.83;;
75386;SDS011;63966;47.914;22.266;2022-10-22T18:20:20;48.88;;;27.98;;
75386;SDS011;63966;47.914;22.266;2022-10-22T18:23:24;45.08;;;28.08;;
75386;SDS011;63966;47.914;22.266;2022-10-22T18:26:27;42.90;;;26.90;;
75386;SDS011;63966;47.914;22.266;2022-10-22T18:29:31;45.73;;;27.90;;
75386;SDS011;63966;47.914;22.266;2022-10-22T18:32:35;48.20;;;28.30;;
75386;SDS011;63966;47.914;22.266;2022-10-22T18:35:39;46.10;;;26.70;;
75386;SDS011;63966;47.914;22.266;2022-10-22T18:38:42;45.85;;;27.38;;
75386;SDS011;63966;47.914;22.266;2022-10-22T18:41:56;44.67;;;26.83;;
75386;SDS011;63966;47.914;22.266;2022-10-22T18:45:01;44.73;;;25.80;;
75386;SDS011;63966;47.914;22.266;2022-10-22T18:48:05;46.17;;;27.38;;
75386;SDS011;63966;47.914;22.266;2022-10-22T18:51:09;43.88;;;27.17;;
75386;SDS011;63966;47.914;22.266;2022-10-22T18:54:12;45.30;;;27.55;;
75386;SDS011;63966;47.914;22.266;2022-10-22T18:57:25;47.63;;;27.93;;
75386;SDS011;63966;47.914;22.266;2022-10-22T19:00:29;44.50;;;25.77;;
75386;SDS011;63966;47.914;22.266;2022-10-22T19:03:32;47.42;;;27.35;;
75386;SDS011;63966;47.914;22.266;2022-10-22T19:06:36;43.60;;;25.92;;
75386;SDS011;63966;47.914;22.266;2022-10-22T19:09:45;41.33;;;26.20;;
75386;SDS011;63966;47.914;22.266;2022-10-22T19:12:49;41.37;;;25.67;;
75386;SDS011;63966;47.914;22.266;2022-10-22T19:15:52;89.07;;;38.47;;
75386;SDS011;63966;47.914;22.266;2022-10-22T19:19:03;61.53;;;31.52;;
75386;SDS011;63966;47.914;22.266;2022-10-22T19:22:07;50.22;;;27.85;;
75386;SDS011;63966;47.914;22.266;2022-10-22T19:25:11;45.47;;;26.63;;
75386;SDS011;63966;47.914;22.266;2022-10-22T19:28:15;44.23;;;25.73;;
75386;SDS011;63966;47.914;22.266;2022-10-22T19:31:19;50.00;;;28.23;;
75386;SDS011;63966;47.914;22.266;2022-10-22T19:34:24;45.78;;;26.50;;